createdAt,value
2022-11-29T00:01:36.051Z,95273.97
2022-11-29T00:04:04.355Z,95276.22
2022-11-29T00:06:33.910Z,95277.22
2022-11-29T00:09:03.166Z,95274.88
2022-11-29T00:11:53.437Z,95279.66
2022-11-29T00:14:22.573Z,95278.84
2022-11-29T00:16:54.783Z,95272.97
2022-11-29T00:19:23.225Z,95277.69
2022-11-29T00:21:50.864Z,95271.97
2022-11-29T00:24:19.080Z,95273.97
2022-11-29T00:26:48.844Z,95276.88
2022-11-29T00:29:16.617Z,95280.13
2022-11-29T00:31:45.184Z,95271.28
2022-11-29T00:34:13.560Z,95274.06
2022-11-29T00:36:42.132Z,95261.44
2022-11-29T00:39:11.745Z,95269.78
2022-11-29T00:41:41.054Z,95266.66
2022-11-29T00:44:15.268Z,95266.66
2022-11-29T00:46:46.199Z,95262.69
2022-11-29T00:49:13.881Z,95261.22
2022-11-29T00:51:41.961Z,95269.72
2022-11-29T00:54:09.656Z,95266.94
2022-11-29T00:56:37.502Z,95265.13
2022-11-29T00:59:05.243Z,95263.94
2022-11-29T01:01:34.620Z,95258.38
2022-11-29T01:04:03.220Z,95255.41
2022-11-29T01:06:31.642Z,95257.44
2022-11-29T01:08:59.406Z,95259.38
2022-11-29T01:11:28.908Z,95255.56
2022-11-29T01:13:59.489Z,95257.16
2022-11-29T01:16:28.543Z,95261.88
2022-11-29T01:18:57.957Z,95263.84
2022-11-29T01:21:26.438Z,95262.59
2022-11-29T01:23:55.166Z,95255.34
2022-11-29T01:26:25.665Z,95266.19
2022-11-29T01:28:55.354Z,95259.66
2022-11-29T01:31:25.990Z,95264.75
2022-11-29T01:33:54.915Z,95263.94
2022-11-29T01:36:24.836Z,95263.31
2022-11-29T01:38:52.821Z,95258.78
2022-11-29T01:41:22.881Z,95261.72
2022-11-29T01:44:00.739Z,95263.72
2022-11-29T01:46:30.969Z,95262.44
2022-11-29T01:49:03.131Z,95255.53
2022-11-29T01:51:33.843Z,95259.81
2022-11-29T01:54:01.577Z,95258.50
2022-11-29T01:56:31.193Z,95253.25
2022-11-29T01:58:59.053Z,95257.88
2022-11-29T02:01:27.285Z,95256.56
2022-11-29T02:03:55.608Z,95252.31
2022-11-29T02:06:23.591Z,95256.09
2022-11-29T02:08:53.290Z,95253.28
2022-11-29T02:11:47.421Z,95251.97
2022-11-29T02:14:30.785Z,95252.97
2022-11-29T02:17:05.216Z,95247.72
2022-11-29T02:19:55.825Z,95251.81
2022-11-29T02:22:29.983Z,95251.00
2022-11-29T02:25:13.957Z,95252.63
2022-11-29T02:28:31.936Z,95257.19
2022-11-29T02:31:38.939Z,95249.31
2022-11-29T02:34:33.331Z,95247.03
2022-11-29T02:37:14.938Z,95241.78
2022-11-29T02:40:14.729Z,95250.63
2022-11-29T02:43:05.495Z,95247.19
2022-11-29T02:45:56.834Z,95246.56
2022-11-29T02:48:37.911Z,95251.66
2022-11-29T02:51:12.414Z,95254.94
2022-11-29T02:53:46.372Z,95248.53
2022-11-29T02:56:23.256Z,95256.91
2022-11-29T02:58:56.304Z,95258.91
2022-11-29T03:01:31.951Z,95256.91
2022-11-29T03:04:08.737Z,95252.97
2022-11-29T03:06:44.084Z,95257.22
2022-11-29T03:09:20.072Z,95253.94
2022-11-29T03:11:54.017Z,95259.03
2022-11-29T03:14:26.592Z,95258.84
2022-11-29T03:17:05.404Z,95268.00
2022-11-29T03:19:52.974Z,95260.63
2022-11-29T03:22:30.886Z,95264.38
2022-11-29T03:25:06.335Z,95264.38
2022-11-29T03:27:43.622Z,95258.00
2022-11-29T03:30:14.928Z,95260.78
2022-11-29T03:32:51.580Z,95267.69
2022-11-29T03:35:26.481Z,95268.50
2022-11-29T03:38:03.506Z,95274.22
2022-11-29T03:40:41.393Z,95271.22
2022-11-29T03:43:15.187Z,95270.56
2022-11-29T03:45:49.776Z,95270.88
2022-11-29T03:48:22.841Z,95276.44
2022-11-29T03:50:56.056Z,95274.44
2022-11-29T03:53:38.208Z,95276.94
2022-11-29T03:56:24.785Z,95271.19
2022-11-29T03:59:02.809Z,95266.56
2022-11-29T04:01:58.986Z,95269.69
2022-11-29T04:05:04.809Z,95268.53
2022-11-29T04:07:49.802Z,95276.75
2022-11-29T04:10:35.662Z,95273.78
2022-11-29T04:13:35.499Z,95264.25
2022-11-29T04:16:22.232Z,95266.94
2022-11-29T04:19:16.517Z,95269.91
2022-11-29T04:22:18.932Z,95265.75
2022-11-29T04:25:31.469Z,95272.13
2022-11-29T04:28:16.729Z,95264.09
2022-11-29T04:30:54.340Z,95270.16
2022-11-29T04:33:48.447Z,95270.50
2022-11-29T04:36:43.117Z,95271.78
2022-11-29T04:39:36.894Z,95272.44
2022-11-29T04:42:44.333Z,95268.16
2022-11-29T04:45:36.801Z,95271.16
2022-11-29T04:48:21.542Z,95273.78
2022-11-29T04:51:00.515Z,95277.22
2022-11-29T04:53:52.944Z,95287.88
2022-11-29T04:56:30.145Z,95293.13
2022-11-29T04:59:06.809Z,95292.50
2022-11-29T05:01:47.766Z,95286.59
2022-11-29T05:04:22.252Z,95284.66
2022-11-29T05:07:03.394Z,95288.09
2022-11-29T05:09:43.414Z,95286.13
2022-11-29T05:12:20.737Z,95287.28
2022-11-29T05:15:15.223Z,95289.59
2022-11-29T05:17:54.013Z,95291.22
2022-11-29T05:20:35.487Z,95296.84
2022-11-29T05:23:24.985Z,95289.94
2022-11-29T05:25:59.074Z,95292.56
2022-11-29T05:28:34.409Z,95297.81
2022-11-29T05:31:26.584Z,95301.13
2022-11-29T05:34:34.737Z,95306.50
2022-11-29T05:37:13.919Z,95304.41
2022-11-29T05:39:58.780Z,95307.84
2022-11-29T05:42:52.825Z,95307.84
2022-11-29T05:45:28.478Z,95303.25
2022-11-29T05:48:06.300Z,95304.72
2022-11-29T05:50:38.998Z,95307.97
2022-11-29T05:53:17.963Z,95306.16
2022-11-29T05:55:55.774Z,95310.59
2022-11-29T05:58:30.928Z,95318.47
2022-11-29T06:01:04.829Z,95311.59
2022-11-29T06:03:40.463Z,95316.19
2022-11-29T06:06:17.604Z,95314.22
2022-11-29T06:08:53.634Z,95315.84
2022-11-29T06:11:29.152Z,95315.19
2022-11-29T06:14:05.904Z,95317.66
2022-11-29T06:16:53.458Z,95318.66
2022-11-29T06:19:42.279Z,95318.47
2022-11-29T06:22:21.631Z,95326.34
2022-11-29T06:25:01.469Z,95329.50
2022-11-29T06:27:44.287Z,95332.75
2022-11-29T06:30:15.590Z,95332.63
2022-11-29T06:32:50.817Z,95339.66
2022-11-29T06:35:36.782Z,95337.84
2022-11-29T06:38:12.446Z,95343.09
2022-11-29T06:40:40.578Z,95345.09
2022-11-29T06:43:09.049Z,95344.41
2022-11-29T06:45:37.283Z,95350.94
2022-11-29T06:48:07.860Z,95346.41
2022-11-29T06:50:54.341Z,95347.03
2022-11-29T06:53:32.199Z,95341.97
2022-11-29T06:56:09.022Z,95351.94
2022-11-29T06:58:47.191Z,95348.16
2022-11-29T07:01:27.423Z,95345.69
2022-11-29T07:04:18.657Z,95354.88
2022-11-29T07:06:48.466Z,95351.31
2022-11-29T07:09:19.910Z,95363.44
2022-11-29T07:11:48.683Z,95354.78
2022-11-29T07:14:17.389Z,95355.91
2022-11-29T07:16:57.763Z,95356.19
2022-11-29T07:19:38.751Z,95360.78
2022-11-29T07:22:17.866Z,95359.97
2022-11-29T07:24:57.972Z,95365.03
2022-11-29T07:27:33.970Z,95354.84
2022-11-29T07:30:11.961Z,95367.44
2022-11-29T07:32:55.921Z,95367.63
2022-11-29T07:35:36.656Z,95367.44
2022-11-29T07:38:14.941Z,95363.97
2022-11-29T07:40:52.828Z,95360.34
2022-11-29T07:43:32.933Z,95364.13
2022-11-29T07:46:01.096Z,95364.94
2022-11-29T07:48:28.748Z,95364.22
2022-11-29T07:50:57.124Z,95372.91
2022-11-29T07:53:26.443Z,95367.66
2022-11-29T07:55:54.576Z,95380.56
2022-11-29T07:58:22.486Z,95374.50
2022-11-29T08:00:50.203Z,95378.94
2022-11-29T08:03:18.357Z,95375.31
2022-11-29T08:05:47.740Z,95374.94
2022-11-29T08:08:16.240Z,95373.97
2022-11-29T08:10:45.586Z,95378.41
2022-11-29T08:13:13.319Z,95381.88
2022-11-29T08:15:45.446Z,95375.00
2022-11-29T08:18:13.687Z,95383.50
2022-11-29T08:20:41.796Z,95387.72
2022-11-29T08:23:12.163Z,95391.00
2022-11-29T08:25:40.210Z,95394.66
2022-11-29T08:28:09.695Z,95387.50
2022-11-29T08:30:37.525Z,95399.41
2022-11-29T08:33:07.574Z,95393.97
2022-11-29T08:35:35.902Z,95395.22
2022-11-29T08:38:04.963Z,95394.56
2022-11-29T08:40:32.685Z,95393.56
2022-11-29T08:43:00.789Z,95399.47
2022-11-29T08:45:30.356Z,95403.41
2022-11-29T08:47:58.073Z,95407.03
2022-11-29T08:50:26.084Z,95403.81
2022-11-29T08:53:11.375Z,95411.91
2022-11-29T08:55:42.659Z,95400.47
2022-11-29T08:58:12.705Z,95404.44
2022-11-29T09:00:43.464Z,95410.97
2022-11-29T09:03:29.746Z,95400.47
2022-11-29T09:05:57.532Z,95409.59
2022-11-29T09:08:26.022Z,95409.59
2022-11-29T09:10:53.674Z,95407.25
2022-11-29T09:13:21.779Z,95413.88
2022-11-29T09:15:50.889Z,95419.06
2022-11-29T09:18:19.079Z,95415.91
2022-11-29T09:20:47.094Z,95414.38
2022-11-29T09:23:14.773Z,95423.03
2022-11-29T09:25:48.681Z,95425.25
2022-11-29T09:28:16.476Z,95419.53
2022-11-29T09:30:44.143Z,95424.78
2022-11-29T09:33:13.148Z,95428.19
2022-11-29T09:35:41.133Z,95420.75
2022-11-29T09:38:08.814Z,95425.38
2022-11-29T09:40:41.944Z,95425.16
2022-11-29T09:43:23.392Z,95427.72
2022-11-29T09:45:56.885Z,95425.53
2022-11-29T09:48:38.168Z,95427.16
2022-11-29T09:51:19.030Z,95431.00
2022-11-29T09:54:07.662Z,95418.03
2022-11-29T09:56:39.590Z,95421.53
2022-11-29T09:59:14.313Z,95423.03
2022-11-29T10:01:46.604Z,95422.59
2022-11-29T10:04:20.152Z,95426.47
2022-11-29T10:06:55.853Z,95431.81
2022-11-29T10:09:32.246Z,95436.69
2022-11-29T10:12:11.853Z,95430.53
2022-11-29T10:14:45.541Z,95431.00
2022-11-29T10:17:23.996Z,95430.66
2022-11-29T10:19:58.617Z,95429.25
2022-11-29T10:22:37.314Z,95425.38
2022-11-29T10:25:08.223Z,95425.91
2022-11-29T10:27:40.380Z,95424.19
2022-11-29T10:30:14.543Z,95426.19
2022-11-29T10:32:44.938Z,95419.47
2022-11-29T10:35:17.209Z,95422.03
2022-11-29T10:38:01.556Z,95418.50
2022-11-29T10:40:36.698Z,95418.63
2022-11-29T10:43:05.053Z,95412.97
2022-11-29T10:45:38.001Z,95415.44
2022-11-29T10:48:09.003Z,95404.19
2022-11-29T10:50:38.932Z,95406.09
2022-11-29T10:53:09.588Z,95411.44
2022-11-29T10:55:43.063Z,95406.53
2022-11-29T10:58:14.855Z,95405.19
2022-11-29T11:00:54.531Z,95414.72
2022-11-29T11:03:44.188Z,95416.16
2022-11-29T11:06:17.387Z,95408.09
2022-11-29T11:08:48.723Z,95421.06
2022-11-29T11:11:26.342Z,95416.25
2022-11-29T11:14:02.475Z,95413.25
2022-11-29T11:16:36.830Z,95417.53
2022-11-29T11:19:28.356Z,95417.16
2022-11-29T11:22:00.090Z,95420.06
2022-11-29T11:24:30.328Z,95416.03
2022-11-29T11:26:59.665Z,95418.97
2022-11-29T11:29:36.716Z,95419.25
2022-11-29T11:32:06.784Z,95415.41
2022-11-29T11:34:36.339Z,95413.78
2022-11-29T11:37:20.926Z,95412.69
2022-11-29T11:39:50.245Z,95411.91
2022-11-29T11:42:40.654Z,95416.06
2022-11-29T11:45:28.296Z,95412.16
2022-11-29T11:47:58.809Z,95414.41
2022-11-29T11:50:30.255Z,95422.03
2022-11-29T11:53:03.397Z,95418.84
2022-11-29T11:55:35.287Z,95418.47
2022-11-29T11:58:19.221Z,95424.19
2022-11-29T12:01:06.054Z,95427.00
2022-11-29T12:03:40.577Z,95421.66
2022-11-29T12:06:28.109Z,95428.41
2022-11-29T12:09:03.548Z,95432.88
2022-11-29T12:11:46.725Z,95429.56
2022-11-29T12:14:23.975Z,95428.09
2022-11-29T12:16:59.595Z,95434.38
2022-11-29T12:19:36.676Z,95430.47
2022-11-29T12:22:09.710Z,95429.22
2022-11-29T12:24:45.314Z,95433.69
2022-11-29T12:27:16.101Z,95427.50
2022-11-29T12:29:43.793Z,95436.00
2022-11-29T12:32:29.161Z,95438.63
2022-11-29T12:35:19.191Z,95429.44
2022-11-29T12:37:57.140Z,95430.81
2022-11-29T12:40:33.850Z,95437.91
2022-11-29T12:43:10.735Z,95435.09
2022-11-29T12:45:44.877Z,95440.91
2022-11-29T12:48:23.959Z,95436.28
2022-11-29T12:51:01.666Z,95443.63
2022-11-29T12:53:45.414Z,95437.00
2022-11-29T12:56:17.165Z,95439.63
2022-11-29T12:59:01.883Z,95436.00
2022-11-29T13:01:40.526Z,95440.81
2022-11-29T13:04:23.210Z,95443.63
2022-11-29T13:06:57.080Z,95437.53
2022-11-29T13:09:54.536Z,95448.91
2022-11-29T13:12:33.765Z,95439.38
2022-11-29T13:15:06.316Z,95445.25
2022-11-29T13:17:42.950Z,95438.97
2022-11-29T13:20:23.039Z,95450.72
2022-11-29T13:22:57.146Z,95449.28
2022-11-29T13:25:29.855Z,95449.09
2022-11-29T13:28:02.770Z,95453.94
2022-11-29T13:30:30.597Z,95445.94
2022-11-29T13:33:04.408Z,95448.94
2022-11-29T13:35:39.880Z,95450.09
2022-11-29T13:38:16.021Z,95453.13
2022-11-29T13:40:54.852Z,95456.22
2022-11-29T13:43:30.641Z,95461.41
2022-11-29T13:46:07.482Z,95457.31
2022-11-29T13:48:47.042Z,95453.22
2022-11-29T13:51:27.692Z,95456.66
2022-11-29T13:53:57.261Z,95465.22
2022-11-29T13:56:29.613Z,95465.84
2022-11-29T13:59:01.200Z,95462.22
2022-11-29T14:01:29.587Z,95464.84
2022-11-29T14:04:05.950Z,95474.38
2022-11-29T14:06:35.221Z,95470.75
2022-11-29T14:09:25.985Z,95473.47
2022-11-29T14:12:04.334Z,95483.38
2022-11-29T14:14:41.317Z,95485.47
2022-11-29T14:17:34.895Z,95484.81
2022-11-29T14:20:52.198Z,95486.81
2022-11-29T14:23:39.325Z,95481.97
2022-11-29T14:26:28.811Z,95486.81
2022-11-29T14:28:58.461Z,95485.06
2022-11-29T14:31:56.233Z,95478.53
2022-11-29T14:34:36.134Z,95482.88
2022-11-29T14:37:15.438Z,95484.88
2022-11-29T14:39:47.185Z,95481.13
2022-11-29T14:42:18.715Z,95484.56
2022-11-29T14:44:52.280Z,95484.28
2022-11-29T14:47:31.719Z,95492.81
2022-11-29T14:50:03.874Z,95496.09
2022-11-29T14:52:34.989Z,95497.28
2022-11-29T14:55:10.244Z,95491.38
2022-11-29T14:58:07.121Z,95492.53
2022-11-29T15:00:52.236Z,95491.06
2022-11-29T15:03:29.428Z,95494.94
2022-11-29T15:06:00.982Z,95504.66
2022-11-29T15:08:36.448Z,95497.28
2022-11-29T15:11:12.561Z,95504.88
2022-11-29T15:13:49.345Z,95508.16
2022-11-29T15:16:34.253Z,95510.84
2022-11-29T15:19:36.670Z,95500.69
2022-11-29T15:22:15.366Z,95508.25
2022-11-29T15:24:55.001Z,95514.88
2022-11-29T15:27:23.457Z,95512.56
2022-11-29T15:29:52.346Z,95512.56
2022-11-29T15:32:26.521Z,95519.00
2022-11-29T15:34:57.005Z,95519.50
2022-11-29T15:37:39.751Z,95515.88
2022-11-29T15:40:11.738Z,95515.38
2022-11-29T15:42:41.739Z,95522.81
2022-11-29T15:45:38.344Z,95530.69
2022-11-29T15:48:19.883Z,95534.31
2022-11-29T15:50:56.383Z,95535.81
2022-11-29T15:53:30.051Z,95534.72
2022-11-29T15:56:02.420Z,95533.06
2022-11-29T15:58:34.649Z,95540.13
2022-11-29T16:01:04.699Z,95534.94
2022-11-29T16:03:35.811Z,95539.00
2022-11-29T16:06:09.685Z,95544.28
2022-11-29T16:08:41.769Z,95538.69
2022-11-29T16:11:16.228Z,95542.03
2022-11-29T16:14:01.749Z,95539.72
2022-11-29T16:16:32.958Z,95542.53
2022-11-29T16:19:10.603Z,95551.22
2022-11-29T16:21:40.316Z,95542.06
2022-11-29T16:24:20.409Z,95546.63
2022-11-29T16:26:50.970Z,95555.50
2022-11-29T16:29:24.584Z,95559.47
2022-11-29T16:31:53.818Z,95565.53
2022-11-29T16:34:27.497Z,95563.09
2022-11-29T16:37:02.391Z,95560.13
2022-11-29T16:39:31.391Z,95566.75
2022-11-29T16:42:07.338Z,95576.72
2022-11-29T16:45:03.356Z,95573.13
2022-11-29T16:47:33.296Z,95580.84
2022-11-29T16:50:14.476Z,95580.69
2022-11-29T16:52:43.814Z,95586.25
2022-11-29T16:55:11.709Z,95583.63
2022-11-29T16:57:40.144Z,95584.13
2022-11-29T17:00:24.380Z,95585.13
2022-11-29T17:02:52.161Z,95584.31
2022-11-29T17:05:19.825Z,95582.50
2022-11-29T17:07:49.293Z,95584.66
2022-11-29T17:10:19.788Z,95587.44
2022-11-29T17:12:48.595Z,95590.56
2022-11-29T17:15:16.628Z,95588.94
2022-11-29T17:17:44.692Z,95589.75
2022-11-29T17:20:13.648Z,95579.59
2022-11-29T17:22:42.440Z,95581.88
2022-11-29T17:25:12.142Z,95578.59
2022-11-29T17:27:40.632Z,95579.25
2022-11-29T17:30:11.199Z,95578.91
2022-11-29T17:32:39.484Z,95581.25
2022-11-29T17:35:07.722Z,95579.25
2022-11-29T17:37:35.872Z,95591.91
2022-11-29T17:40:03.545Z,95589.28
2022-11-29T17:42:33.057Z,95587.94
2022-11-29T17:45:00.732Z,95599.94
2022-11-29T17:47:29.087Z,95603.38
2022-11-29T17:49:58.017Z,95606.00
2022-11-29T17:52:26.275Z,95608.28
2022-11-29T17:54:54.011Z,95609.44
2022-11-29T17:57:21.987Z,95618.31
2022-11-29T17:59:50.982Z,95616.34
2022-11-29T18:02:19.317Z,95613.38
2022-11-29T18:04:47.009Z,95610.09
2022-11-29T18:07:17.437Z,95609.28
2022-11-29T18:09:46.684Z,95607.81
2022-11-29T18:12:15.005Z,95618.28
2022-11-29T18:14:42.630Z,95615.50
2022-11-29T18:17:12.037Z,95615.69
2022-11-29T18:19:39.738Z,95622.56
2022-11-29T18:22:08.689Z,95622.91
2022-11-29T18:24:36.356Z,95616.00
2022-11-29T18:27:04.224Z,95625.16
2022-11-29T18:29:38.258Z,95629.13
2022-11-29T18:32:07.484Z,95632.03
2022-11-29T18:34:36.483Z,95637.63
2022-11-29T18:37:04.820Z,95643.06
2022-11-29T18:39:32.790Z,95634.66
2022-11-29T18:42:00.476Z,95645.81
2022-11-29T18:44:30.102Z,95635.13
2022-11-29T18:46:58.463Z,95642.50
2022-11-29T18:49:26.142Z,95642.69
2022-11-29T18:51:55.453Z,95643.16
2022-11-29T18:54:23.124Z,95644.28
2022-11-29T18:56:51.341Z,95650.38
2022-11-29T18:59:19.011Z,95646.78
2022-11-29T19:01:48.756Z,95644.28
2022-11-29T19:04:18.669Z,95649.69
2022-11-29T19:06:47.137Z,95656.09
2022-11-29T19:09:18.400Z,95660.34
2022-11-29T19:11:46.470Z,95656.75
2022-11-29T19:14:14.180Z,95657.56
2022-11-29T19:16:44.465Z,95660.88
2022-11-29T19:19:13.254Z,95656.59
2022-11-29T19:21:41.565Z,95648.56
2022-11-29T19:24:15.191Z,95650.00
2022-11-29T19:26:45.856Z,95650.81
2022-11-29T19:29:14.304Z,95659.88
2022-11-29T19:31:42.437Z,95657.06
2022-11-29T19:34:10.240Z,95663.13
2022-11-29T19:36:42.616Z,95667.41
2022-11-29T19:39:12.227Z,95674.44
2022-11-29T19:41:39.922Z,95676.41
2022-11-29T19:44:10.259Z,95678.06
2022-11-29T19:46:40.987Z,95678.53
2022-11-29T19:49:10.263Z,95678.53
2022-11-29T19:51:37.996Z,95679.19
2022-11-29T19:54:08.423Z,95682.47
2022-11-29T19:56:36.166Z,95681.50
2022-11-29T19:59:04.680Z,95668.72
2022-11-29T20:01:40.744Z,95676.41
2022-11-29T20:04:10.922Z,95685.72
2022-11-29T20:06:39.053Z,95685.06
2022-11-29T20:09:07.454Z,95681.78
2022-11-29T20:11:35.315Z,95687.66
2022-11-29T20:14:05.543Z,95695.34
2022-11-29T20:16:36.749Z,95684.38
2022-11-29T20:19:10.072Z,95684.69
2022-11-29T20:21:43.446Z,95686.84
2022-11-29T20:24:12.366Z,95684.00
2022-11-29T20:26:41.537Z,95685.00
2022-11-29T20:29:10.183Z,95687.28
2022-11-29T20:31:47.754Z,95687.94
2022-11-29T20:34:17.722Z,95695.59
2022-11-29T20:37:00.635Z,95697.88
2022-11-29T20:39:36.121Z,95695.38
2022-11-29T20:42:28.358Z,95693.47
2022-11-29T20:44:58.049Z,95691.50
2022-11-29T20:47:29.465Z,95710.19
2022-11-29T20:49:57.669Z,95708.53
2022-11-29T20:52:35.600Z,95703.00
2022-11-29T20:55:04.463Z,95709.34
2022-11-29T20:57:32.089Z,95706.59
2022-11-29T21:00:01.069Z,95709.47
2022-11-29T21:02:30.079Z,95704.72
2022-11-29T21:04:58.174Z,95712.88
2022-11-29T21:07:25.846Z,95710.78
2022-11-29T21:09:56.669Z,95713.88
2022-11-29T21:12:29.517Z,95718.78
2022-11-29T21:14:57.985Z,95719.63
2022-11-29T21:17:33.153Z,95713.41
2022-11-29T21:20:03.503Z,95721.91
2022-11-29T21:22:42.130Z,95710.13
2022-11-29T21:25:21.102Z,95706.50
2022-11-29T21:27:49.356Z,95711.91
2022-11-29T21:30:20.553Z,95710.06
2022-11-29T21:32:49.008Z,95709.09
2022-11-29T21:35:19.053Z,95711.16
2022-11-29T21:37:47.071Z,95717.91
2022-11-29T21:40:16.088Z,95710.50
2022-11-29T21:42:43.741Z,95714.31
2022-11-29T21:45:15.544Z,95710.44
2022-11-29T21:47:44.347Z,95707.28
2022-11-29T21:50:13.537Z,95699.75
2022-11-29T21:52:44.184Z,95707.13
2022-11-29T21:55:12.205Z,95708.28
2022-11-29T21:57:40.091Z,95712.84
2022-11-29T22:00:09.145Z,95708.88
2022-11-29T22:02:37.255Z,95710.81
2022-11-29T22:05:05.542Z,95712.25
2022-11-29T22:07:33.192Z,95721.44
2022-11-29T22:10:11.652Z,95719.66
2022-11-29T22:12:49.376Z,95727.50
2022-11-29T22:15:24.577Z,95722.94
2022-11-29T22:17:53.239Z,95724.56
2022-11-29T22:20:21.525Z,95725.19
2022-11-29T22:22:49.295Z,95728.47
2022-11-29T22:25:18.655Z,95726.28
2022-11-29T22:27:46.295Z,95728.09
2022-11-29T22:30:14.261Z,95732.97
2022-11-29T22:32:41.893Z,95724.81
2022-11-29T22:35:10.185Z,95725.63
2022-11-29T22:37:37.833Z,95721.22
2022-11-29T22:40:07.688Z,95721.22
2022-11-29T22:42:36.636Z,95734.00
2022-11-29T22:45:05.367Z,95732.66
2022-11-29T22:47:33.003Z,95726.91
2022-11-29T22:50:00.661Z,95734.59
2022-11-29T22:52:29.679Z,95727.72
2022-11-29T22:55:02.915Z,95730.03
2022-11-29T22:57:32.974Z,95725.41
2022-11-29T23:00:01.978Z,95725.03
2022-11-29T23:02:29.999Z,95722.84
2022-11-29T23:04:57.652Z,95730.56
2022-11-29T23:07:25.789Z,95726.97
2022-11-29T23:09:55.026Z,95724.63
2022-11-29T23:12:23.211Z,95729.88
2022-11-29T23:14:56.072Z,95726.97
2022-11-29T23:17:26.065Z,95723.38
2022-11-29T23:19:53.727Z,95718.44
2022-11-29T23:22:22.118Z,95718.44
2022-11-29T23:24:49.832Z,95723.97
2022-11-29T23:27:17.828Z,95721.66
2022-11-29T23:29:45.516Z,95714.09
2022-11-29T23:32:13.599Z,95717.97
2022-11-29T23:34:43.573Z,95708.81
2022-11-29T23:37:11.703Z,95700.13
2022-11-29T23:39:39.337Z,95708.09
2022-11-29T23:42:07.297Z,95708.41
2022-11-29T23:44:35.095Z,95713.50
2022-11-29T23:47:03.046Z,95714.31
2022-11-29T23:49:30.844Z,95715.59
2022-11-29T23:52:00.198Z,95713.94
2022-11-29T23:54:27.975Z,95706.53
2022-11-29T23:56:56.393Z,95705.72
2022-11-29T23:59:24.042Z,95704.88
